sensor_id;sensor_type;location;lat;lon;timestamp;P1;durP1;ratioP1;P2;durP2;ratioP2
75061;SDS011;63641;46.526;24.612;2023-04-01T00:01:15;11.35;;;7.82;;
75061;SDS011;63641;46.526;24.612;2023-04-01T00:03:43;8.05;;;7.25;;
75061;SDS011;63641;46.526;24.612;2023-04-01T00:06:14;13.65;;;10.20;;
75061;SDS011;63641;46.526;24.612;2023-04-01T00:08:43;11.45;;;9.95;;
75061;SDS011;63641;46.526;24.612;2023-04-01T00:11:11;12.07;;;10.88;;
75061;SDS011;63641;46.526;24.612;2023-04-01T00:13:38;10.80;;;9.70;;
75061;SDS011;63641;46.526;24.612;2023-04-01T00:16:05;12.10;;;9.43;;
75061;SDS011;63641;46.526;24.612;2023-04-01T00:18:46;12.50;;;9.35;;
75061;SDS011;63641;46.526;24.612;2023-04-01T00:21:14;9.90;;;8.88;;
75061;SDS011;63641;46.526;24.612;2023-04-01T00:23:42;10.40;;;9.30;;
75061;SDS011;63641;46.526;24.612;2023-04-01T00:26:10;10.48;;;8.98;;
75061;SDS011;63641;46.526;24.612;2023-04-01T00:28:39;10.60;;;9.48;;
75061;SDS011;63641;46.526;24.612;2023-04-01T00:31:06;10.23;;;9.23;;
75061;SDS011;63641;46.526;24.612;2023-04-01T00:33:34;10.63;;;9.23;;
75061;SDS011;63641;46.526;24.612;2023-04-01T00:36:07;9.60;;;8.60;;
75061;SDS011;63641;46.526;24.612;2023-04-01T00:38:38;11.45;;;9.93;;
75061;SDS011;63641;46.526;24.612;2023-04-01T00:41:06;10.63;;;9.35;;
75061;SDS011;63641;46.526;24.612;2023-04-01T00:43:33;10.43;;;9.13;;
75061;SDS011;63641;46.526;24.612;2023-04-01T00:46:00;9.90;;;8.68;;
75061;SDS011;63641;46.526;24.612;2023-04-01T00:48:29;9.77;;;8.77;;
75061;SDS011;63641;46.526;24.612;2023-04-01T00:51:01;12.07;;;9.93;;
75061;SDS011;63641;46.526;24.612;2023-04-01T00:53:31;9.88;;;8.77;;
75061;SDS011;63641;46.526;24.612;2023-04-01T00:56:03;10.23;;;8.93;;
75061;SDS011;63641;46.526;24.612;2023-04-01T00:58:35;7.65;;;6.88;;
75061;SDS011;63641;46.526;24.612;2023-04-01T01:01:07;7.95;;;7.15;;
75061;SDS011;63641;46.526;24.612;2023-04-01T01:03:35;12.68;;;10.05;;
75061;SDS011;63641;46.526;24.612;2023-04-01T01:06:07;14.48;;;12.93;;
75061;SDS011;63641;46.526;24.612;2023-04-01T01:11:05;15.60;;;12.88;;
75061;SDS011;63641;46.526;24.612;2023-04-01T01:13:52;14.82;;;12.77;;
75061;SDS011;63641;46.526;24.612;2023-04-01T01:16:29;13.73;;;12.25;;
75061;SDS011;63641;46.526;24.612;2023-04-01T01:19:08;14.63;;;12.80;;
75061;SDS011;63641;46.526;24.612;2023-04-01T01:21:49;12.75;;;11.40;;
75061;SDS011;63641;46.526;24.612;2023-04-01T01:27:23;14.52;;;12.93;;
75061;SDS011;63641;46.526;24.612;2023-04-01T01:30:09;14.98;;;12.23;;
75061;SDS011;63641;46.526;24.612;2023-04-01T01:35:44;14.15;;;12.65;;
75061;SDS011;63641;46.526;24.612;2023-04-01T01:38:19;14.68;;;12.80;;
75061;SDS011;63641;46.526;24.612;2023-04-01T01:40:50;13.65;;;12.00;;
75061;SDS011;63641;46.526;24.612;2023-04-01T01:43:36;12.75;;;11.45;;
75061;SDS011;63641;46.526;24.612;2023-04-01T01:46:14;14.43;;;11.75;;
75061;SDS011;63641;46.526;24.612;2023-04-01T01:48:45;14.15;;;12.02;;
75061;SDS011;63641;46.526;24.612;2023-04-01T01:51:14;13.73;;;12.32;;
75061;SDS011;63641;46.526;24.612;2023-04-01T01:53:41;13.10;;;11.32;;
75061;SDS011;63641;46.526;24.612;2023-04-01T01:56:09;14.70;;;10.32;;
75061;SDS011;63641;46.526;24.612;2023-04-01T01:58:38;11.43;;;10.23;;
75061;SDS011;63641;46.526;24.612;2023-04-01T02:01:11;10.25;;;9.15;;
75061;SDS011;63641;46.526;24.612;2023-04-01T02:03:41;9.68;;;8.68;;
75061;SDS011;63641;46.526;24.612;2023-04-01T02:06:10;9.95;;;8.95;;
75061;SDS011;63641;46.526;24.612;2023-04-01T02:08:45;10.35;;;9.27;;
75061;SDS011;63641;46.526;24.612;2023-04-01T02:11:18;11.68;;;8.85;;
75061;SDS011;63641;46.526;24.612;2023-04-01T02:16:43;9.73;;;8.52;;
75061;SDS011;63641;46.526;24.612;2023-04-01T02:19:11;9.68;;;8.73;;
75061;SDS011;63641;46.526;24.612;2023-04-01T02:21:40;10.45;;;8.88;;
75061;SDS011;63641;46.526;24.612;2023-04-01T02:24:10;8.95;;;7.88;;
75061;SDS011;63641;46.526;24.612;2023-04-01T02:26:39;9.63;;;8.25;;
75061;SDS011;63641;46.526;24.612;2023-04-01T02:29:07;9.82;;;8.57;;
75061;SDS011;63641;46.526;24.612;2023-04-01T02:31:35;9.55;;;7.68;;
75061;SDS011;63641;46.526;24.612;2023-04-01T02:34:03;10.23;;;7.97;;
75061;SDS011;63641;46.526;24.612;2023-04-01T02:36:30;9.88;;;7.90;;
75061;SDS011;63641;46.526;24.612;2023-04-01T02:38:58;10.48;;;8.13;;
75061;SDS011;63641;46.526;24.612;2023-04-01T02:41:28;9.98;;;8.65;;
75061;SDS011;63641;46.526;24.612;2023-04-01T02:43:55;10.55;;;9.18;;
75061;SDS011;63641;46.526;24.612;2023-04-01T02:46:24;10.32;;;8.18;;
75061;SDS011;63641;46.526;24.612;2023-04-01T02:48:52;9.15;;;8.18;;
75061;SDS011;63641;46.526;24.612;2023-04-01T02:51:19;8.32;;;7.50;;
75061;SDS011;63641;46.526;24.612;2023-04-01T02:53:46;8.60;;;7.70;;
75061;SDS011;63641;46.526;24.612;2023-04-01T02:56:13;8.82;;;7.25;;
75061;SDS011;63641;46.526;24.612;2023-04-01T02:58:40;8.43;;;7.53;;
75061;SDS011;63641;46.526;24.612;2023-04-01T03:01:07;9.70;;;7.90;;
75061;SDS011;63641;46.526;24.612;2023-04-01T03:03:34;9.25;;;7.82;;
75061;SDS011;63641;46.526;24.612;2023-04-01T03:06:08;8.88;;;7.97;;
75061;SDS011;63641;46.526;24.612;2023-04-01T03:08:36;8.75;;;7.68;;
75061;SDS011;63641;46.526;24.612;2023-04-01T03:11:04;8.23;;;7.40;;
75061;SDS011;63641;46.526;24.612;2023-04-01T03:13:31;8.80;;;7.95;;
75061;SDS011;63641;46.526;24.612;2023-04-01T03:15:58;11.43;;;7.80;;
75061;SDS011;63641;46.526;24.612;2023-04-01T03:18:25;9.70;;;7.55;;
75061;SDS011;63641;46.526;24.612;2023-04-01T03:20:52;8.65;;;7.72;;
75061;SDS011;63641;46.526;24.612;2023-04-01T03:23:19;8.80;;;7.90;;
75061;SDS011;63641;46.526;24.612;2023-04-01T03:25:47;8.40;;;7.60;;
75061;SDS011;63641;46.526;24.612;2023-04-01T03:28:14;8.55;;;7.53;;
75061;SDS011;63641;46.526;24.612;2023-04-01T03:30:40;8.70;;;7.80;;
75061;SDS011;63641;46.526;24.612;2023-04-01T03:33:07;10.85;;;8.57;;
75061;SDS011;63641;46.526;24.612;2023-04-01T03:35:34;8.55;;;7.65;;
75061;SDS011;63641;46.526;24.612;2023-04-01T03:38:02;9.60;;;8.60;;
75061;SDS011;63641;46.526;24.612;2023-04-01T03:40:29;10.63;;;7.97;;
75061;SDS011;63641;46.526;24.612;2023-04-01T03:42:56;10.75;;;7.78;;
75061;SDS011;63641;46.526;24.612;2023-04-01T03:45:22;8.80;;;7.88;;
75061;SDS011;63641;46.526;24.612;2023-04-01T03:47:49;9.32;;;8.45;;
75061;SDS011;63641;46.526;24.612;2023-04-01T03:50:16;9.68;;;8.25;;
75061;SDS011;63641;46.526;24.612;2023-04-01T03:52:43;8.73;;;7.82;;
75061;SDS011;63641;46.526;24.612;2023-04-01T03:55:10;8.80;;;7.85;;
75061;SDS011;63641;46.526;24.612;2023-04-01T03:57:37;8.02;;;7.22;;
75061;SDS011;63641;46.526;24.612;2023-04-01T04:00:04;9.00;;;7.65;;
75061;SDS011;63641;46.526;24.612;2023-04-01T04:02:32;8.48;;;7.68;;
75061;SDS011;63641;46.526;24.612;2023-04-01T04:04:58;11.18;;;9.52;;
75061;SDS011;63641;46.526;24.612;2023-04-01T04:07:25;9.90;;;8.90;;
75061;SDS011;63641;46.526;24.612;2023-04-01T04:09:52;10.45;;;8.90;;
75061;SDS011;63641;46.526;24.612;2023-04-01T04:12:19;9.40;;;8.48;;
75061;SDS011;63641;46.526;24.612;2023-04-01T04:14:45;11.13;;;10.02;;
75061;SDS011;63641;46.526;24.612;2023-04-01T04:17:12;10.77;;;9.60;;
75061;SDS011;63641;46.526;24.612;2023-04-01T04:19:42;9.85;;;8.68;;
75061;SDS011;63641;46.526;24.612;2023-04-01T04:22:09;10.55;;;9.43;;
75061;SDS011;63641;46.526;24.612;2023-04-01T04:24:36;11.48;;;10.05;;
75061;SDS011;63641;46.526;24.612;2023-04-01T04:27:03;12.82;;;10.50;;
75061;SDS011;63641;46.526;24.612;2023-04-01T04:29:30;10.80;;;9.70;;
75061;SDS011;63641;46.526;24.612;2023-04-01T04:31:57;12.15;;;10.85;;
75061;SDS011;63641;46.526;24.612;2023-04-01T04:34:24;11.80;;;10.60;;
75061;SDS011;63641;46.526;24.612;2023-04-01T04:36:51;15.10;;;10.98;;
75061;SDS011;63641;46.526;24.612;2023-04-01T04:39:17;11.52;;;10.20;;
75061;SDS011;63641;46.526;24.612;2023-04-01T04:41:44;15.45;;;12.70;;
75061;SDS011;63641;46.526;24.612;2023-04-01T04:44:11;12.75;;;11.30;;
75061;SDS011;63641;46.526;24.612;2023-04-01T04:46:38;15.07;;;12.25;;
75061;SDS011;63641;46.526;24.612;2023-04-01T04:49:05;13.32;;;11.68;;
75061;SDS011;63641;46.526;24.612;2023-04-01T04:51:33;14.82;;;12.10;;
75061;SDS011;63641;46.526;24.612;2023-04-01T04:54:02;11.95;;;10.70;;
75061;SDS011;63641;46.526;24.612;2023-04-01T04:56:29;13.15;;;10.65;;
75061;SDS011;63641;46.526;24.612;2023-04-01T04:58:57;12.82;;;11.45;;
75061;SDS011;63641;46.526;24.612;2023-04-01T05:01:24;13.25;;;10.27;;
75061;SDS011;63641;46.526;24.612;2023-04-01T05:03:51;12.38;;;11.07;;
75061;SDS011;63641;46.526;24.612;2023-04-01T05:06:18;12.43;;;10.30;;
75061;SDS011;63641;46.526;24.612;2023-04-01T05:08:48;11.88;;;10.65;;
75061;SDS011;63641;46.526;24.612;2023-04-01T05:11:16;11.05;;;9.95;;
75061;SDS011;63641;46.526;24.612;2023-04-01T05:13:44;12.25;;;11.02;;
75061;SDS011;63641;46.526;24.612;2023-04-01T05:16:13;12.05;;;9.57;;
75061;SDS011;63641;46.526;24.612;2023-04-01T05:18:42;10.95;;;9.77;;
75061;SDS011;63641;46.526;24.612;2023-04-01T05:21:10;9.65;;;8.65;;
75061;SDS011;63641;46.526;24.612;2023-04-01T05:23:38;14.18;;;12.70;;
75061;SDS011;63641;46.526;24.612;2023-04-01T05:26:05;20.67;;;16.02;;
75061;SDS011;63641;46.526;24.612;2023-04-01T05:28:33;21.25;;;17.90;;
75061;SDS011;63641;46.526;24.612;2023-04-01T05:31:01;29.77;;;24.63;;
75061;SDS011;63641;46.526;24.612;2023-04-01T05:33:29;30.63;;;24.88;;
75061;SDS011;63641;46.526;24.612;2023-04-01T05:35:56;22.30;;;19.20;;
75061;SDS011;63641;46.526;24.612;2023-04-01T05:38:32;20.60;;;16.63;;
75061;SDS011;63641;46.526;24.612;2023-04-01T05:40:59;21.58;;;17.73;;
75061;SDS011;63641;46.526;24.612;2023-04-01T05:43:26;19.23;;;15.38;;
75061;SDS011;63641;46.526;24.612;2023-04-01T05:45:54;19.42;;;16.60;;
75061;SDS011;63641;46.526;24.612;2023-04-01T05:48:21;16.58;;;13.68;;
75061;SDS011;63641;46.526;24.612;2023-04-01T05:50:47;18.75;;;13.18;;
75061;SDS011;63641;46.526;24.612;2023-04-01T05:53:14;18.60;;;16.40;;
75061;SDS011;63641;46.526;24.612;2023-04-01T05:55:41;29.77;;;22.73;;
75061;SDS011;63641;46.526;24.612;2023-04-01T05:58:08;31.65;;;24.65;;
75061;SDS011;63641;46.526;24.612;2023-04-01T06:00:34;29.70;;;24.15;;
75061;SDS011;63641;46.526;24.612;2023-04-01T06:03:01;34.22;;;25.98;;
75061;SDS011;63641;46.526;24.612;2023-04-01T06:05:29;32.20;;;25.67;;
75061;SDS011;63641;46.526;24.612;2023-04-01T06:08:05;30.27;;;25.85;;
75061;SDS011;63641;46.526;24.612;2023-04-01T06:10:55;36.17;;;27.85;;
75061;SDS011;63641;46.526;24.612;2023-04-01T06:13:35;29.02;;;23.80;;
75061;SDS011;63641;46.526;24.612;2023-04-01T06:22:22;20.90;;;15.52;;
75061;SDS011;63641;46.526;24.612;2023-04-01T06:25:23;17.13;;;14.13;;
75061;SDS011;63641;46.526;24.612;2023-04-01T06:30:52;15.70;;;13.10;;
75061;SDS011;63641;46.526;24.612;2023-04-01T06:39:59;12.18;;;10.13;;
75061;SDS011;63641;46.526;24.612;2023-04-01T06:56:28;39.00;;;32.83;;
75061;SDS011;63641;46.526;24.612;2023-04-01T06:59:03;36.25;;;31.55;;
75061;SDS011;63641;46.526;24.612;2023-04-01T07:01:54;35.78;;;30.02;;
75061;SDS011;63641;46.526;24.612;2023-04-01T07:04:30;38.30;;;31.67;;
75061;SDS011;63641;46.526;24.612;2023-04-01T07:07:05;22.95;;;20.48;;
75061;SDS011;63641;46.526;24.612;2023-04-01T07:09:41;23.20;;;19.23;;
75061;SDS011;63641;46.526;24.612;2023-04-01T07:14:43;25.27;;;22.60;;
75061;SDS011;63641;46.526;24.612;2023-04-01T07:17:12;40.65;;;33.25;;
75061;SDS011;63641;46.526;24.612;2023-04-01T07:20:17;39.60;;;31.55;;
75061;SDS011;63641;46.526;24.612;2023-04-01T07:22:49;57.60;;;42.45;;
75061;SDS011;63641;46.526;24.612;2023-04-01T07:28:03;32.90;;;27.27;;
75061;SDS011;63641;46.526;24.612;2023-04-01T07:30:40;31.77;;;27.90;;
75061;SDS011;63641;46.526;24.612;2023-04-01T07:42:05;25.50;;;21.90;;
75061;SDS011;63641;46.526;24.612;2023-04-01T07:44:38;22.83;;;20.42;;
75061;SDS011;63641;46.526;24.612;2023-04-01T07:50:36;23.15;;;20.30;;
75061;SDS011;63641;46.526;24.612;2023-04-01T07:53:20;24.65;;;22.05;;
75061;SDS011;63641;46.526;24.612;2023-04-01T07:55:55;23.70;;;21.00;;
75061;SDS011;63641;46.526;24.612;2023-04-01T08:01:01;24.67;;;21.80;;
75061;SDS011;63641;46.526;24.612;2023-04-01T08:03:36;22.98;;;20.52;;
75061;SDS011;63641;46.526;24.612;2023-04-01T08:06:24;22.60;;;19.20;;
75061;SDS011;63641;46.526;24.612;2023-04-01T08:09:06;25.02;;;20.73;;
75061;SDS011;63641;46.526;24.612;2023-04-01T08:22:51;27.90;;;24.65;;
75061;SDS011;63641;46.526;24.612;2023-04-01T08:25:27;34.40;;;30.08;;
75061;SDS011;63641;46.526;24.612;2023-04-01T08:27:59;29.92;;;26.67;;
75061;SDS011;63641;46.526;24.612;2023-04-01T08:33:17;24.27;;;20.90;;
75061;SDS011;63641;46.526;24.612;2023-04-01T08:44:50;13.57;;;11.80;;
75061;SDS011;63641;46.526;24.612;2023-04-01T08:48:08;19.85;;;16.35;;
75061;SDS011;63641;46.526;24.612;2023-04-01T08:56:09;22.77;;;18.27;;
75061;SDS011;63641;46.526;24.612;2023-04-01T09:27:36;15.75;;;11.23;;
75061;SDS011;63641;46.526;24.612;2023-04-01T09:35:49;11.07;;;9.20;;
75061;SDS011;63641;46.526;24.612;2023-04-01T09:49:13;8.85;;;7.95;;
75061;SDS011;63641;46.526;24.612;2023-04-01T09:52:06;10.48;;;9.05;;
75061;SDS011;63641;46.526;24.612;2023-04-01T10:00:36;6.38;;;5.78;;
75061;SDS011;63641;46.526;24.612;2023-04-01T10:18:14;7.72;;;7.03;;
75061;SDS011;63641;46.526;24.612;2023-04-01T10:20:57;8.85;;;7.20;;
75061;SDS011;63641;46.526;24.612;2023-04-01T10:37:34;5.82;;;5.30;;
75061;SDS011;63641;46.526;24.612;2023-04-01T11:05:50;7.93;;;7.13;;
75061;SDS011;63641;46.526;24.612;2023-04-01T11:33:39;7.55;;;6.50;;
75061;SDS011;63641;46.526;24.612;2023-04-01T11:36:21;8.88;;;6.65;;
75061;SDS011;63641;46.526;24.612;2023-04-01T11:39:27;8.60;;;5.85;;
75061;SDS011;63641;46.526;24.612;2023-04-01T11:47:37;12.13;;;10.20;;
75061;SDS011;63641;46.526;24.612;2023-04-01T11:59:26;21.52;;;19.10;;
75061;SDS011;63641;46.526;24.612;2023-04-01T12:07:57;7.07;;;6.07;;
75061;SDS011;63641;46.526;24.612;2023-04-01T12:10:33;7.75;;;6.38;;
75061;SDS011;63641;46.526;24.612;2023-04-01T12:19:16;12.80;;;11.50;;
75061;SDS011;63641;46.526;24.612;2023-04-01T12:31:02;22.98;;;17.92;;
75061;SDS011;63641;46.526;24.612;2023-04-01T12:50:49;9.60;;;8.55;;
75061;SDS011;63641;46.526;24.612;2023-04-01T12:53:35;9.70;;;8.45;;
75061;SDS011;63641;46.526;24.612;2023-04-01T13:01:25;6.95;;;6.25;;
75061;SDS011;63641;46.526;24.612;2023-04-01T13:04:01;8.20;;;6.13;;
75061;SDS011;63641;46.526;24.612;2023-04-01T13:12:10;5.88;;;5.15;;
75061;SDS011;63641;46.526;24.612;2023-04-01T13:23:55;5.13;;;4.30;;
75061;SDS011;63641;46.526;24.612;2023-04-01T13:29:25;4.50;;;4.10;;
75061;SDS011;63641;46.526;24.612;2023-04-01T13:43:00;5.60;;;4.05;;
75061;SDS011;63641;46.526;24.612;2023-04-01T13:51:11;3.50;;;2.97;;
75061;SDS011;63641;46.526;24.612;2023-04-01T14:27:06;4.70;;;3.38;;
75061;SDS011;63641;46.526;24.612;2023-04-01T14:38:02;5.25;;;3.47;;
75061;SDS011;63641;46.526;24.612;2023-04-01T14:40:45;3.40;;;3.10;;
75061;SDS011;63641;46.526;24.612;2023-04-01T14:44:14;4.38;;;3.22;;
75061;SDS011;63641;46.526;24.612;2023-04-01T14:54:55;2.50;;;2.30;;
75061;SDS011;63641;46.526;24.612;2023-04-01T14:57:27;2.63;;;2.42;;
75061;SDS011;63641;46.526;24.612;2023-04-01T15:02:45;2.33;;;2.10;;
75061;SDS011;63641;46.526;24.612;2023-04-01T15:14:01;6.93;;;3.08;;
75061;SDS011;63641;46.526;24.612;2023-04-01T15:19:45;3.88;;;3.10;;
75061;SDS011;63641;46.526;24.612;2023-04-01T15:22:52;3.60;;;2.88;;
75061;SDS011;63641;46.526;24.612;2023-04-01T15:31:15;3.20;;;2.85;;
75061;SDS011;63641;46.526;24.612;2023-04-01T15:34:11;3.67;;;2.90;;
75061;SDS011;63641;46.526;24.612;2023-04-01T15:37:02;3.35;;;3.05;;
75061;SDS011;63641;46.526;24.612;2023-04-01T16:04:31;5.35;;;4.15;;
75061;SDS011;63641;46.526;24.612;2023-04-01T16:09:59;6.07;;;5.13;;
75061;SDS011;63641;46.526;24.612;2023-04-01T16:15:39;5.68;;;5.18;;
75061;SDS011;63641;46.526;24.612;2023-04-01T16:21:13;5.85;;;5.35;;
75061;SDS011;63641;46.526;24.612;2023-04-01T16:26:37;6.28;;;4.70;;
75061;SDS011;63641;46.526;24.612;2023-04-01T16:29:17;6.28;;;5.68;;
75061;SDS011;63641;46.526;24.612;2023-04-01T16:31:58;5.95;;;5.28;;
75061;SDS011;63641;46.526;24.612;2023-04-01T16:34:54;5.82;;;5.32;;
75061;SDS011;63641;46.526;24.612;2023-04-01T16:37:32;6.15;;;5.22;;
75061;SDS011;63641;46.526;24.612;2023-04-01T16:48:11;8.88;;;5.63;;
75061;SDS011;63641;46.526;24.612;2023-04-01T16:53:34;6.40;;;5.30;;
75061;SDS011;63641;46.526;24.612;2023-04-01T16:56:04;6.65;;;5.90;;
75061;SDS011;63641;46.526;24.612;2023-04-01T17:01:43;8.55;;;5.72;;
75061;SDS011;63641;46.526;24.612;2023-04-01T17:04:29;6.00;;;5.50;;
75061;SDS011;63641;46.526;24.612;2023-04-01T17:07:05;6.90;;;5.72;;
75061;SDS011;63641;46.526;24.612;2023-04-01T17:12:42;6.70;;;5.78;;
75061;SDS011;63641;46.526;24.612;2023-04-01T17:15:36;6.63;;;5.65;;
75061;SDS011;63641;46.526;24.612;2023-04-01T17:18:29;7.10;;;6.40;;
75061;SDS011;63641;46.526;24.612;2023-04-01T17:21:10;6.22;;;5.63;;
75061;SDS011;63641;46.526;24.612;2023-04-01T17:23:52;5.93;;;5.25;;
75061;SDS011;63641;46.526;24.612;2023-04-01T17:26:46;5.68;;;5.18;;
75061;SDS011;63641;46.526;24.612;2023-04-01T17:35:39;6.20;;;5.60;;
75061;SDS011;63641;46.526;24.612;2023-04-01T17:44:58;8.27;;;7.00;;
75061;SDS011;63641;46.526;24.612;2023-04-01T17:47:49;9.45;;;7.13;;
75061;SDS011;63641;46.526;24.612;2023-04-01T17:50:47;9.63;;;8.32;;
75061;SDS011;63641;46.526;24.612;2023-04-01T18:01:45;9.25;;;8.30;;
75061;SDS011;63641;46.526;24.612;2023-04-01T18:04:25;11.75;;;9.45;;
75061;SDS011;63641;46.526;24.612;2023-04-01T18:07:06;9.98;;;8.98;;
75061;SDS011;63641;46.526;24.612;2023-04-01T18:10:03;10.45;;;8.88;;
75061;SDS011;63641;46.526;24.612;2023-04-01T18:18:25;9.43;;;8.52;;
75061;SDS011;63641;46.526;24.612;2023-04-01T18:23:56;10.05;;;9.05;;
75061;SDS011;63641;46.526;24.612;2023-04-01T18:26:32;10.38;;;9.15;;
75061;SDS011;63641;46.526;24.612;2023-04-01T18:31:48;10.25;;;8.70;;
75061;SDS011;63641;46.526;24.612;2023-04-01T18:34:44;10.10;;;9.15;;
75061;SDS011;63641;46.526;24.612;2023-04-01T18:40:19;9.50;;;8.50;;
75061;SDS011;63641;46.526;24.612;2023-04-01T18:42:56;11.40;;;8.68;;
75061;SDS011;63641;46.526;24.612;2023-04-01T18:45:57;8.85;;;7.95;;
75061;SDS011;63641;46.526;24.612;2023-04-01T18:51:14;10.55;;;7.90;;
75061;SDS011;63641;46.526;24.612;2023-04-01T18:53:57;7.97;;;7.18;;
75061;SDS011;63641;46.526;24.612;2023-04-01T18:56:30;9.85;;;7.78;;
75061;SDS011;63641;46.526;24.612;2023-04-01T19:24:34;7.72;;;7.03;;
75061;SDS011;63641;46.526;24.612;2023-04-01T19:30:18;7.40;;;6.50;;
75061;SDS011;63641;46.526;24.612;2023-04-01T19:39:05;6.40;;;5.80;;
75061;SDS011;63641;46.526;24.612;2023-04-01T19:47:57;8.80;;;7.78;;
75061;SDS011;63641;46.526;24.612;2023-04-01T19:50:34;6.88;;;5.93;;
75061;SDS011;63641;46.526;24.612;2023-04-01T19:58:48;6.85;;;6.25;;
75061;SDS011;63641;46.526;24.612;2023-04-01T20:04:14;8.65;;;7.75;;
75061;SDS011;63641;46.526;24.612;2023-04-01T20:14:50;6.97;;;6.28;;
75061;SDS011;63641;46.526;24.612;2023-04-01T20:20:00;7.35;;;6.65;;
75061;SDS011;63641;46.526;24.612;2023-04-01T20:25:15;9.10;;;8.10;;
75061;SDS011;63641;46.526;24.612;2023-04-01T20:28:28;7.72;;;7.03;;
75061;SDS011;63641;46.526;24.612;2023-04-01T20:39:02;9.02;;;7.65;;
75061;SDS011;63641;46.526;24.612;2023-04-01T20:44:43;9.98;;;7.80;;
75061;SDS011;63641;46.526;24.612;2023-04-01T20:53:10;8.57;;;7.78;;
75061;SDS011;63641;46.526;24.612;2023-04-01T21:04:12;11.73;;;10.07;;
75061;SDS011;63641;46.526;24.612;2023-04-01T21:06:53;15.77;;;11.27;;
75061;SDS011;63641;46.526;24.612;2023-04-01T21:12:19;11.75;;;9.90;;
75061;SDS011;63641;46.526;24.612;2023-04-01T21:15:02;13.27;;;10.02;;
75061;SDS011;63641;46.526;24.612;2023-04-01T21:17:36;10.95;;;8.45;;
75061;SDS011;63641;46.526;24.612;2023-04-01T21:26:19;9.32;;;8.32;;
75061;SDS011;63641;46.526;24.612;2023-04-01T22:32:59;8.52;;;7.63;;
75061;SDS011;63641;46.526;24.612;2023-04-01T22:38:28;8.57;;;7.68;;
75061;SDS011;63641;46.526;24.612;2023-04-01T22:41:08;8.40;;;6.80;;
75061;SDS011;63641;46.526;24.612;2023-04-01T22:43:41;11.45;;;8.80;;
75061;SDS011;63641;46.526;24.612;2023-04-01T22:46:46;9.43;;;8.43;;
75061;SDS011;63641;46.526;24.612;2023-04-01T22:49:21;7.18;;;6.25;;
75061;SDS011;63641;46.526;24.612;2023-04-01T22:51:55;11.25;;;9.18;;
75061;SDS011;63641;46.526;24.612;2023-04-01T22:54:37;12.23;;;10.68;;
75061;SDS011;63641;46.526;24.612;2023-04-01T22:57:09;10.27;;;8.95;;
75061;SDS011;63641;46.526;24.612;2023-04-01T22:59:50;12.30;;;10.90;;
75061;SDS011;63641;46.526;24.612;2023-04-01T23:05:00;13.65;;;11.55;;
75061;SDS011;63641;46.526;24.612;2023-04-01T23:13:03;9.30;;;8.30;;
75061;SDS011;63641;46.526;24.612;2023-04-01T23:15:36;11.05;;;9.85;;
75061;SDS011;63641;46.526;24.612;2023-04-01T23:18:12;11.05;;;8.88;;
75061;SDS011;63641;46.526;24.612;2023-04-01T23:20:57;11.40;;;9.10;;
75061;SDS011;63641;46.526;24.612;2023-04-01T23:28:56;9.93;;;8.82;;
75061;SDS011;63641;46.526;24.612;2023-04-01T23:33:59;11.15;;;9.60;;
75061;SDS011;63641;46.526;24.612;2023-04-01T23:36:28;11.27;;;10.02;;
75061;SDS011;63641;46.526;24.612;2023-04-01T23:38:57;9.82;;;8.75;;
75061;SDS011;63641;46.526;24.612;2023-04-01T23:41:30;11.70;;;10.35;;
75061;SDS011;63641;46.526;24.612;2023-04-01T23:44:06;10.90;;;9.02;;
75061;SDS011;63641;46.526;24.612;2023-04-01T23:46:38;10.52;;;9.45;;
75061;SDS011;63641;46.526;24.612;2023-04-01T23:49:10;10.38;;;9.27;;
75061;SDS011;63641;46.526;24.612;2023-04-01T23:57:30;11.75;;;10.20;;
